createdAt,value
2019-03-27T00:02:18.689Z,7.10
2019-03-27T00:04:47.081Z,6.00
2019-03-27T00:07:15.474Z,6.53
2019-03-27T00:09:43.871Z,6.60
2019-03-27T00:12:12.334Z,5.73
2019-03-27T00:14:40.729Z,6.67
2019-03-27T00:17:09.114Z,6.87
2019-03-27T00:19:37.558Z,6.43
2019-03-27T00:22:06.024Z,5.73
2019-03-27T00:24:34.408Z,6.00
2019-03-27T00:27:02.808Z,6.30
2019-03-27T00:29:31.199Z,7.30
2019-03-27T00:31:59.612Z,7.73
2019-03-27T00:34:28.089Z,7.40
2019-03-27T00:36:56.518Z,6.67
2019-03-27T00:39:24.926Z,5.93
2019-03-27T00:41:53.352Z,6.13
2019-03-27T00:44:21.745Z,6.10
2019-03-27T00:46:50.182Z,5.87
2019-03-27T00:49:18.568Z,5.70
2019-03-27T00:51:46.986Z,5.63
2019-03-27T00:54:15.377Z,5.47
2019-03-27T00:56:43.797Z,5.63
2019-03-27T00:59:12.195Z,5.70
2019-03-27T01:01:40.692Z,6.00
2019-03-27T01:04:09.086Z,5.57
2019-03-27T01:06:37.492Z,5.97
2019-03-27T01:09:06.118Z,5.83
2019-03-27T01:11:34.505Z,5.80
2019-03-27T01:14:02.893Z,5.50
2019-03-27T01:16:31.285Z,5.57
2019-03-27T01:18:59.682Z,5.30
2019-03-27T01:21:28.202Z,5.33
2019-03-27T01:23:56.593Z,5.87
2019-03-27T01:26:24.975Z,5.67
2019-03-27T01:28:53.365Z,5.13
2019-03-27T01:31:21.748Z,5.27
2019-03-27T01:33:50.130Z,5.90
2019-03-27T01:36:18.522Z,5.50
2019-03-27T01:38:46.934Z,5.60
2019-03-27T01:41:15.324Z,5.57
2019-03-27T01:43:43.707Z,5.50
2019-03-27T01:46:12.092Z,5.47
2019-03-27T01:48:40.482Z,5.30
2019-03-27T01:51:08.864Z,5.80
2019-03-27T01:53:37.433Z,5.70
2019-03-27T01:56:05.822Z,5.53
2019-03-27T01:58:34.245Z,5.43
2019-03-27T02:01:02.672Z,5.27
2019-03-27T02:03:31.181Z,5.40
2019-03-27T02:05:59.565Z,5.57
2019-03-27T02:08:28.046Z,5.63
2019-03-27T02:10:56.504Z,5.50
2019-03-27T02:13:24.929Z,5.00
2019-03-27T02:16:05.903Z,5.03
2019-03-27T02:18:23.473Z,5.37
2019-03-27T02:20:51.860Z,5.43
2019-03-27T02:23:20.287Z,5.50
2019-03-27T02:25:48.865Z,5.63
2019-03-27T02:28:17.292Z,5.77
2019-03-27T02:30:45.676Z,5.03
2019-03-27T02:33:14.105Z,5.70
2019-03-27T02:35:42.494Z,5.43
2019-03-27T02:38:10.949Z,5.93
2019-03-27T02:40:39.356Z,5.10
2019-03-27T02:43:07.789Z,5.50
2019-03-27T02:45:36.172Z,5.70
2019-03-27T02:48:04.614Z,5.83
2019-03-27T02:50:32.999Z,5.13
2019-03-27T02:53:01.437Z,5.57
2019-03-27T02:55:29.787Z,5.43
2019-03-27T02:57:58.168Z,5.50
2019-03-27T03:00:26.556Z,5.40
2019-03-27T03:02:54.942Z,5.27
2019-03-27T03:05:23.335Z,5.37
2019-03-27T03:07:51.730Z,5.50
2019-03-27T03:10:20.142Z,5.67
2019-03-27T03:12:48.538Z,5.77
2019-03-27T03:15:20.186Z,5.47
2019-03-27T03:17:49.014Z,6.03
2019-03-27T03:20:17.411Z,5.90
2019-03-27T03:22:45.840Z,5.80
2019-03-27T03:25:14.232Z,5.43
2019-03-27T03:27:42.668Z,5.90
2019-03-27T03:30:11.170Z,5.40
2019-03-27T03:32:39.892Z,5.20
2019-03-27T03:35:08.766Z,6.13
2019-03-27T03:37:37.188Z,5.57
2019-03-27T03:40:06.358Z,5.53
2019-03-27T03:42:34.759Z,5.83
2019-03-27T03:45:03.420Z,5.87
2019-03-27T03:47:31.811Z,5.63
2019-03-27T03:50:00.520Z,5.93
2019-03-27T03:52:29.001Z,5.10
2019-03-27T03:54:57.463Z,5.57
2019-03-27T03:57:26.929Z,5.50
2019-03-27T03:59:55.314Z,5.40
2019-03-27T04:02:23.711Z,7.33
2019-03-27T04:04:52.181Z,5.87
2019-03-27T04:07:20.571Z,5.90
2019-03-27T04:09:48.981Z,5.90
2019-03-27T04:12:17.379Z,5.50
2019-03-27T04:14:45.754Z,5.47
2019-03-27T04:17:17.388Z,6.10
2019-03-27T04:19:44.299Z,5.70
2019-03-27T04:22:12.684Z,6.00
2019-03-27T04:24:41.095Z,5.80
2019-03-27T04:27:09.502Z,6.43
2019-03-27T04:29:37.915Z,6.43
2019-03-27T04:32:06.331Z,6.80
2019-03-27T04:34:34.742Z,7.20
2019-03-27T04:37:03.131Z,7.40
2019-03-27T04:39:31.511Z,7.20
2019-03-27T04:41:59.904Z,7.07
2019-03-27T04:44:28.314Z,6.57
2019-03-27T04:46:56.883Z,6.43
2019-03-27T04:49:25.318Z,6.93
2019-03-27T04:51:53.710Z,6.63
2019-03-27T04:54:22.208Z,6.37
2019-03-27T04:56:50.603Z,6.13
2019-03-27T04:59:19.118Z,6.40
2019-03-27T05:01:47.516Z,5.87
2019-03-27T05:04:16.002Z,6.40
2019-03-27T05:06:44.397Z,6.90
2019-03-27T05:09:12.814Z,6.70
2019-03-27T05:11:41.275Z,6.10
2019-03-27T05:14:09.711Z,6.03
2019-03-27T05:16:38.198Z,6.03
2019-03-27T05:19:06.717Z,6.00
2019-03-27T05:21:35.130Z,5.90
2019-03-27T05:24:03.561Z,5.60
2019-03-27T05:26:31.945Z,5.90
2019-03-27T05:29:00.393Z,5.67
2019-03-27T05:31:28.790Z,5.53
2019-03-27T05:33:57.225Z,5.30
2019-03-27T05:36:25.622Z,5.10
2019-03-27T05:38:54.032Z,5.13
2019-03-27T05:41:22.425Z,4.70
2019-03-27T05:43:50.861Z,4.40
2019-03-27T05:46:19.241Z,4.77
2019-03-27T05:48:47.670Z,4.57
2019-03-27T05:51:16.101Z,4.30
2019-03-27T05:53:44.522Z,4.47
2019-03-27T05:56:12.990Z,4.23
2019-03-27T05:58:41.418Z,4.20
2019-03-27T06:01:09.809Z,4.30
2019-03-27T06:03:38.347Z,4.00
2019-03-27T06:06:06.744Z,3.70
2019-03-27T06:08:35.143Z,4.00
2019-03-27T06:11:03.537Z,3.53
2019-03-27T06:13:31.937Z,3.10
2019-03-27T06:16:00.329Z,3.10
2019-03-27T06:18:28.722Z,3.73
2019-03-27T06:20:57.134Z,4.37
2019-03-27T06:23:25.528Z,4.50
2019-03-27T06:25:53.935Z,4.60
2019-03-27T06:28:22.323Z,4.50
2019-03-27T06:30:50.717Z,4.33
2019-03-27T06:33:19.114Z,4.30
2019-03-27T06:35:47.512Z,4.53
2019-03-27T06:38:15.908Z,4.33
2019-03-27T06:40:44.303Z,4.50
2019-03-27T06:43:12.698Z,4.60
2019-03-27T06:45:41.158Z,4.73
2019-03-27T06:48:09.551Z,5.37
2019-03-27T06:50:37.942Z,4.17
2019-03-27T06:53:06.338Z,4.83
2019-03-27T06:55:34.852Z,4.37
2019-03-27T06:58:03.246Z,4.60
2019-03-27T07:00:35.664Z,4.43
2019-03-27T07:03:04.623Z,4.60
2019-03-27T07:05:33.019Z,4.40
2019-03-27T07:08:01.883Z,4.23
2019-03-27T07:10:30.280Z,4.10
2019-03-27T07:12:58.676Z,4.50
2019-03-27T07:15:27.093Z,4.70
2019-03-27T07:17:55.486Z,4.53
2019-03-27T07:20:23.884Z,4.50
2019-03-27T07:22:52.279Z,4.47
2019-03-27T07:25:20.691Z,4.40
2019-03-27T07:27:49.091Z,4.73
2019-03-27T07:30:17.517Z,4.53
2019-03-27T07:32:45.911Z,4.60
2019-03-27T07:35:14.343Z,4.47
2019-03-27T07:37:42.741Z,4.10
2019-03-27T07:40:11.166Z,4.73
2019-03-27T07:42:39.577Z,4.80
2019-03-27T07:45:08.011Z,4.00
2019-03-27T07:47:36.541Z,4.57
2019-03-27T07:50:06.896Z,4.93
2019-03-27T07:52:35.355Z,4.13
2019-03-27T07:55:04.179Z,4.40
2019-03-27T07:57:32.573Z,4.00
2019-03-27T08:00:01.003Z,4.70
2019-03-27T08:02:29.398Z,4.60
2019-03-27T08:04:57.823Z,4.30
2019-03-27T08:07:27.295Z,4.17
2019-03-27T08:09:55.797Z,3.77
2019-03-27T08:12:24.263Z,3.80
2019-03-27T08:14:52.699Z,3.63
2019-03-27T08:17:21.096Z,3.70
2019-03-27T08:19:49.486Z,3.83
2019-03-27T08:22:17.881Z,3.93
2019-03-27T08:24:46.282Z,3.90
2019-03-27T08:27:14.779Z,2.93
2019-03-27T08:29:43.322Z,3.47
2019-03-27T08:32:11.722Z,3.37
2019-03-27T08:34:40.137Z,3.37
2019-03-27T08:37:08.548Z,3.33
2019-03-27T08:39:36.941Z,3.17
2019-03-27T08:42:05.335Z,3.50
2019-03-27T08:44:33.729Z,3.43
2019-03-27T08:47:02.180Z,3.30
2019-03-27T08:49:30.565Z,3.23
2019-03-27T08:51:58.999Z,3.17
2019-03-27T08:54:27.384Z,3.07
2019-03-27T08:56:55.802Z,3.50
2019-03-27T08:59:23.330Z,2.93
2019-03-27T09:01:51.773Z,3.13
2019-03-27T09:04:20.371Z,3.10
2019-03-27T09:06:48.802Z,3.27
2019-03-27T09:09:17.194Z,3.03
2019-03-27T09:11:45.635Z,2.90
2019-03-27T09:14:14.026Z,2.97
2019-03-27T09:16:42.453Z,2.90
2019-03-27T09:19:11.036Z,2.93
2019-03-27T09:21:39.586Z,2.80
2019-03-27T09:24:08.085Z,2.77
2019-03-27T09:26:36.652Z,2.60
2019-03-27T09:29:08.246Z,2.57
2019-03-27T09:31:44.880Z,2.77
2019-03-27T09:34:05.371Z,2.57
2019-03-27T09:36:33.790Z,2.33
2019-03-27T09:39:02.309Z,2.53
2019-03-27T09:41:30.816Z,2.20
2019-03-27T09:43:59.292Z,2.53
2019-03-27T09:46:27.773Z,2.47
2019-03-27T09:48:56.257Z,2.63
2019-03-27T09:51:24.680Z,2.87
2019-03-27T09:53:53.453Z,2.17
2019-03-27T09:56:22.015Z,2.50
2019-03-27T09:58:50.488Z,2.50
2019-03-27T10:01:19.067Z,2.60
2019-03-27T10:03:47.664Z,2.33
2019-03-27T10:06:16.115Z,2.27
2019-03-27T10:08:44.611Z,2.30
2019-03-27T10:11:13.096Z,2.10
2019-03-27T10:13:41.586Z,2.50
2019-03-27T10:16:10.042Z,2.30
2019-03-27T10:18:38.454Z,2.53
2019-03-27T10:21:06.968Z,2.07
2019-03-27T10:23:35.377Z,2.13
2019-03-27T10:26:03.800Z,2.00
2019-03-27T10:28:32.358Z,1.73
2019-03-27T10:31:00.785Z,2.30
2019-03-27T10:33:29.321Z,2.07
2019-03-27T10:35:57.801Z,2.10
2019-03-27T10:38:26.309Z,2.03
2019-03-27T10:40:54.724Z,1.97
2019-03-27T10:43:23.245Z,1.97
2019-03-27T10:45:51.669Z,2.10
2019-03-27T10:48:20.207Z,1.97
2019-03-27T10:50:48.689Z,2.10
2019-03-27T10:53:17.166Z,1.60
2019-03-27T10:55:45.589Z,1.60
2019-03-27T10:58:14.027Z,1.90
2019-03-27T11:00:42.517Z,1.87
2019-03-27T11:03:10.996Z,1.90
2019-03-27T11:05:39.545Z,1.90
2019-03-27T11:08:11.259Z,1.50
2019-03-27T11:10:38.381Z,1.80
2019-03-27T11:13:06.877Z,1.50
2019-03-27T11:15:35.294Z,1.83
2019-03-27T11:18:03.821Z,1.80
2019-03-27T11:20:32.275Z,1.80
2019-03-27T11:23:00.782Z,1.90
2019-03-27T11:25:32.836Z,1.40
2019-03-27T11:27:59.486Z,1.80
2019-03-27T11:30:36.157Z,1.67
2019-03-27T11:33:05.221Z,1.90
2019-03-27T11:35:33.645Z,2.13
2019-03-27T11:38:02.213Z,1.73
2019-03-27T11:40:30.697Z,2.20
2019-03-27T11:42:59.180Z,2.00
2019-03-27T11:45:27.598Z,1.57
2019-03-27T11:47:56.142Z,1.90
2019-03-27T11:50:24.565Z,1.60
2019-03-27T11:52:53.099Z,1.90
2019-03-27T11:55:21.520Z,1.93
2019-03-27T11:57:51.516Z,1.80
2019-03-27T12:00:19.936Z,1.80
2019-03-27T12:02:48.457Z,2.00
2019-03-27T12:05:16.874Z,1.80
2019-03-27T12:07:45.352Z,1.70
2019-03-27T12:10:14.208Z,2.00
2019-03-27T12:12:42.689Z,1.90
2019-03-27T12:15:11.168Z,1.77
2019-03-27T12:17:39.651Z,1.73
2019-03-27T12:20:08.072Z,2.00
2019-03-27T12:22:36.524Z,2.03
2019-03-27T12:25:05.673Z,1.70
2019-03-27T12:27:34.126Z,2.07
2019-03-27T12:30:05.329Z,1.80
2019-03-27T12:32:33.915Z,1.73
2019-03-27T12:35:02.395Z,2.20
2019-03-27T12:37:30.878Z,2.13
2019-03-27T12:39:59.357Z,1.57
2019-03-27T12:42:27.839Z,1.93
2019-03-27T12:44:56.296Z,1.70
2019-03-27T12:47:24.716Z,1.97
2019-03-27T12:49:53.215Z,1.60
2019-03-27T12:52:21.742Z,1.60
2019-03-27T12:54:50.218Z,2.20
2019-03-27T12:57:18.676Z,1.70
2019-03-27T12:59:47.106Z,1.80
2019-03-27T13:02:15.516Z,1.73
2019-03-27T13:04:43.947Z,1.73
2019-03-27T13:07:12.363Z,1.83
2019-03-27T13:09:40.783Z,1.97
2019-03-27T13:12:09.200Z,1.80
2019-03-27T13:14:37.682Z,1.47
2019-03-27T13:17:06.162Z,1.67
2019-03-27T13:19:34.646Z,1.67
2019-03-27T13:22:03.127Z,1.70
2019-03-27T13:24:31.603Z,1.87
2019-03-27T13:27:00.019Z,2.00
2019-03-27T13:29:28.441Z,1.63
2019-03-27T13:31:56.854Z,1.93
2019-03-27T13:34:25.322Z,1.80
2019-03-27T13:36:53.747Z,1.73
2019-03-27T13:39:22.287Z,2.10
2019-03-27T13:41:50.709Z,2.40
2019-03-27T13:44:19.147Z,2.20
2019-03-27T13:46:47.665Z,2.07
2019-03-27T13:49:16.413Z,2.37
2019-03-27T13:51:44.895Z,2.20
2019-03-27T13:54:13.336Z,2.30
2019-03-27T13:56:41.860Z,2.00
2019-03-27T13:59:10.643Z,2.20
2019-03-27T14:01:39.070Z,2.10
2019-03-27T14:04:07.607Z,1.93
2019-03-27T14:06:36.025Z,2.00
2019-03-27T14:09:07.094Z,2.67
2019-03-27T14:11:35.613Z,2.20
2019-03-27T14:14:11.219Z,2.50
2019-03-27T14:16:34.295Z,3.67
2019-03-27T14:19:02.798Z,5.33
2019-03-27T14:21:31.276Z,6.87
2019-03-27T14:23:59.754Z,6.93
2019-03-27T14:26:28.473Z,8.67
2019-03-27T14:28:57.087Z,10.50
2019-03-27T14:31:25.609Z,11.43
2019-03-27T14:33:54.193Z,13.20
2019-03-27T14:36:22.617Z,12.57
2019-03-27T14:38:51.084Z,14.20
2019-03-27T14:41:19.515Z,14.10
2019-03-27T14:43:47.988Z,14.73
2019-03-27T14:46:16.415Z,15.67
2019-03-27T14:48:44.976Z,16.43
2019-03-27T14:51:13.403Z,16.73
2019-03-27T14:53:41.934Z,17.07
2019-03-27T14:56:10.370Z,17.10
2019-03-27T14:58:38.889Z,17.30
2019-03-27T15:01:07.496Z,17.97
2019-03-27T15:03:36.081Z,18.80
2019-03-27T15:06:04.701Z,18.07
2019-03-27T15:08:33.347Z,18.70
2019-03-27T15:11:01.927Z,18.30
2019-03-27T15:13:30.511Z,18.73
2019-03-27T15:15:59.093Z,18.20
2019-03-27T15:18:27.682Z,19.57
2019-03-27T15:20:56.269Z,17.77
2019-03-27T15:23:24.844Z,19.97
2019-03-27T15:25:53.332Z,19.73
2019-03-27T15:28:21.910Z,19.30
2019-03-27T15:30:50.601Z,19.17
2019-03-27T15:33:19.183Z,19.43
2019-03-27T15:35:47.766Z,19.03
2019-03-27T15:38:16.346Z,18.60
2019-03-27T15:40:45.958Z,19.03
2019-03-27T15:43:14.645Z,17.77
2019-03-27T15:45:43.223Z,18.27
2019-03-27T15:48:11.749Z,18.30
2019-03-27T15:50:53.793Z,17.47
2019-03-27T15:53:11.025Z,18.07
2019-03-27T15:55:39.606Z,16.50
2019-03-27T15:58:08.206Z,15.87
2019-03-27T16:00:36.773Z,14.80
2019-03-27T16:03:05.353Z,14.93
2019-03-27T16:05:33.963Z,14.27
2019-03-27T16:08:02.518Z,13.50
2019-03-27T16:10:31.104Z,13.53
2019-03-27T16:12:59.691Z,13.53
2019-03-27T16:15:28.266Z,13.47
2019-03-27T16:17:56.853Z,13.73
2019-03-27T16:20:25.536Z,12.50
2019-03-27T16:22:54.131Z,13.37
2019-03-27T16:25:22.840Z,13.17
2019-03-27T16:27:51.394Z,12.93
2019-03-27T16:30:19.975Z,14.67
2019-03-27T16:32:48.769Z,13.33
2019-03-27T16:35:19.302Z,13.27
2019-03-27T16:37:47.800Z,12.77
2019-03-27T16:40:18.098Z,13.27
2019-03-27T16:42:46.686Z,13.40
2019-03-27T16:45:15.263Z,13.77
2019-03-27T16:47:43.765Z,14.03
2019-03-27T16:50:12.254Z,13.83
2019-03-27T16:52:40.810Z,14.37
2019-03-27T16:55:09.397Z,13.57
2019-03-27T16:57:37.979Z,12.87
2019-03-27T17:00:08.205Z,13.83
2019-03-27T17:02:37.198Z,13.90
2019-03-27T17:05:07.415Z,13.17
2019-03-27T17:07:40.624Z,13.17
2019-03-27T17:10:09.093Z,13.33
2019-03-27T17:12:37.672Z,13.87
2019-03-27T17:15:07.547Z,12.77
2019-03-27T17:17:36.170Z,12.60
2019-03-27T17:20:08.027Z,13.10
2019-03-27T17:22:36.713Z,12.13
2019-03-27T17:25:07.066Z,12.97
2019-03-27T17:27:36.030Z,12.30
2019-03-27T17:30:06.830Z,12.00
2019-03-27T17:32:35.349Z,11.73
2019-03-27T17:35:05.434Z,12.27
2019-03-27T17:37:33.868Z,11.60
2019-03-27T17:40:02.428Z,11.47
2019-03-27T17:42:31.014Z,11.50
2019-03-27T17:45:00.017Z,12.27
2019-03-27T17:47:28.686Z,11.03
2019-03-27T17:49:57.277Z,11.87
2019-03-27T17:52:26.266Z,11.57
2019-03-27T17:54:55.973Z,11.57
2019-03-27T17:57:25.380Z,11.20
2019-03-27T17:59:53.962Z,10.73
2019-03-27T18:02:22.650Z,10.73
2019-03-27T18:04:51.235Z,11.07
2019-03-27T18:07:19.816Z,10.77
2019-03-27T18:09:48.808Z,10.30
2019-03-27T18:12:17.393Z,10.67
2019-03-27T18:14:46.286Z,10.93
2019-03-27T18:17:14.854Z,10.63
2019-03-27T18:19:43.440Z,10.43
2019-03-27T18:22:13.353Z,10.37
2019-03-27T18:24:43.588Z,10.77
2019-03-27T18:27:12.675Z,10.63
2019-03-27T18:29:41.256Z,10.43
2019-03-27T18:32:09.840Z,10.37
2019-03-27T18:34:38.424Z,10.70
2019-03-27T18:37:06.900Z,10.20
2019-03-27T18:39:35.488Z,10.77
2019-03-27T18:42:04.168Z,9.70
2019-03-27T18:44:32.756Z,10.43
2019-03-27T18:47:01.340Z,10.47
2019-03-27T18:49:29.832Z,10.00
2019-03-27T18:51:58.456Z,10.03
2019-03-27T18:54:27.396Z,10.17
2019-03-27T18:56:55.987Z,10.00
2019-03-27T18:59:24.667Z,9.63
2019-03-27T19:01:53.247Z,10.73
2019-03-27T19:04:21.649Z,10.50
2019-03-27T19:06:50.058Z,10.43
2019-03-27T19:09:18.540Z,10.77
2019-03-27T19:11:46.945Z,10.10
2019-03-27T19:14:15.361Z,10.13
2019-03-27T19:16:43.761Z,10.20
2019-03-27T19:19:12.165Z,10.50
2019-03-27T19:21:40.636Z,11.10
2019-03-27T19:24:14.969Z,10.33
2019-03-27T19:26:39.174Z,10.73
2019-03-27T19:29:07.571Z,10.20
2019-03-27T19:31:35.994Z,10.40
2019-03-27T19:34:04.468Z,10.77
2019-03-27T19:36:33.041Z,10.43
2019-03-27T19:39:01.447Z,10.97
2019-03-27T19:41:30.146Z,11.40
2019-03-27T19:43:58.547Z,11.30
2019-03-27T19:46:28.574Z,10.70
2019-03-27T19:48:59.721Z,11.20
2019-03-27T19:51:28.145Z,10.77
2019-03-27T19:53:56.613Z,11.07
2019-03-27T19:56:25.011Z,11.07
2019-03-27T19:58:53.408Z,10.70
2019-03-27T20:01:21.836Z,11.90
2019-03-27T20:03:50.230Z,11.80
2019-03-27T20:06:18.675Z,11.67
2019-03-27T20:08:47.070Z,11.20
2019-03-27T20:11:15.537Z,12.00
2019-03-27T20:13:44.085Z,11.17
2019-03-27T20:16:12.534Z,11.47
2019-03-27T20:18:40.934Z,11.30
2019-03-27T20:21:09.374Z,13.03
2019-03-27T20:23:37.774Z,16.47
2019-03-27T20:26:06.197Z,13.60
2019-03-27T20:28:34.597Z,14.77
2019-03-27T20:31:03.028Z,13.90
2019-03-27T20:33:31.423Z,12.93
2019-03-27T20:35:59.856Z,14.43
2019-03-27T20:38:28.257Z,12.50
2019-03-27T20:40:56.702Z,13.03
2019-03-27T20:43:25.094Z,12.73
2019-03-27T20:45:53.501Z,12.37
2019-03-27T20:48:21.909Z,11.60
2019-03-27T20:50:50.308Z,12.70
2019-03-27T20:53:18.714Z,12.40
2019-03-27T20:55:47.122Z,11.33
2019-03-27T20:58:15.530Z,12.10
2019-03-27T21:00:43.937Z,11.83
2019-03-27T21:03:12.341Z,11.00
2019-03-27T21:05:40.748Z,11.97
2019-03-27T21:08:09.154Z,10.53
2019-03-27T21:10:37.549Z,10.70
2019-03-27T21:13:05.965Z,10.40
2019-03-27T21:15:34.440Z,10.47
2019-03-27T21:18:02.832Z,9.93
2019-03-27T21:20:31.269Z,10.60
2019-03-27T21:22:59.671Z,10.40
2019-03-27T21:25:28.066Z,9.73
2019-03-27T21:27:57.009Z,10.13
2019-03-27T21:30:25.411Z,9.47
2019-03-27T21:32:53.845Z,9.70
2019-03-27T21:35:22.240Z,9.70
2019-03-27T21:37:50.667Z,9.70
2019-03-27T21:40:19.072Z,9.37
2019-03-27T21:42:47.515Z,9.20
2019-03-27T21:45:15.981Z,9.13
2019-03-27T21:47:44.412Z,9.40
2019-03-27T21:50:12.807Z,8.10
2019-03-27T21:52:41.246Z,9.73
2019-03-27T21:55:22.035Z,8.80
2019-03-27T21:57:39.818Z,8.47
2019-03-27T22:00:08.283Z,8.67
2019-03-27T22:02:36.713Z,8.93
2019-03-27T22:05:06.476Z,8.93
2019-03-27T22:07:34.908Z,8.37
2019-03-27T22:10:03.970Z,8.27
2019-03-27T22:12:32.372Z,8.50
2019-03-27T22:15:00.768Z,8.20
2019-03-27T22:17:29.170Z,9.60
2019-03-27T22:19:57.549Z,8.23
2019-03-27T22:22:25.932Z,8.40
2019-03-27T22:24:54.309Z,7.70
2019-03-27T22:27:22.681Z,7.60
2019-03-27T22:29:51.052Z,7.87
2019-03-27T22:32:19.441Z,7.60
2019-03-27T22:34:47.816Z,7.53
2019-03-27T22:37:16.220Z,6.90
2019-03-27T22:39:44.599Z,7.20
2019-03-27T22:42:12.998Z,7.70
2019-03-27T22:44:41.372Z,7.47
2019-03-27T22:47:09.735Z,7.23
2019-03-27T22:49:38.132Z,7.70
2019-03-27T22:52:06.615Z,7.37
2019-03-27T22:54:34.992Z,7.80
2019-03-27T22:57:03.372Z,9.03
2019-03-27T22:59:31.751Z,9.03
2019-03-27T23:02:00.139Z,9.23
2019-03-27T23:04:28.537Z,9.67
2019-03-27T23:06:56.914Z,10.20
2019-03-27T23:09:25.291Z,10.40
2019-03-27T23:11:53.665Z,10.40
2019-03-27T23:14:22.131Z,10.50
2019-03-27T23:16:50.652Z,11.20
2019-03-27T23:19:19.041Z,11.13
2019-03-27T23:21:47.448Z,11.43
2019-03-27T23:24:15.829Z,11.40
2019-03-27T23:26:44.197Z,12.03
2019-03-27T23:29:12.579Z,12.33
2019-03-27T23:31:40.973Z,13.60
2019-03-27T23:34:09.357Z,13.50
2019-03-27T23:36:37.737Z,13.83
2019-03-27T23:39:07.652Z,15.47
2019-03-27T23:41:36.027Z,13.57
2019-03-27T23:44:04.407Z,12.63
2019-03-27T23:46:32.789Z,15.17
2019-03-27T23:49:01.253Z,13.53
2019-03-27T23:51:29.694Z,12.43
2019-03-27T23:53:58.091Z,12.40
2019-03-27T23:56:26.525Z,14.30
2019-03-27T23:58:54.930Z,13.43
